Time;durP1;ratioP1;P1;durP2;ratioP2;P2;SDS_P1;SDS_P2;PMS_P1;PMS_P2;Temp;Humidity;BMP_temperature;BMP_pressure;BME280_temperature;BME280_humidity;BME280_pressure;Samples;Min_cycle;Max_cycle;Signal;HPM_P1;HPM_P2
2023/08/07 00:00:15;;;;;;;1.23;0.40;;;;;13.80;96146.00;;;;5004921;28;20210;-88
2023/08/07 00:03:05;;;;;;;0.50;0.33;;;;;13.80;96132.00;;;;5003228;28;20205;-87
2023/08/07 00:05:55;;;;;;;1.90;0.40;;;;;14.00;96143.00;;;;4997075;28;20463;-87
2023/08/07 00:08:44;;;;;;;3.40;0.40;;;;;14.20;96149.00;;;;5000098;28;20244;-87
2023/08/07 00:11:33;;;;;;;0.47;0.40;;;;;14.30;96137.00;;;;5007957;28;20389;-87
2023/08/07 00:14:22;;;;;;;0.50;0.30;;;;;14.30;96138.00;;;;5001217;28;20240;-88
2023/08/07 00:17:11;;;;;;;0.43;0.40;;;;;14.70;96139.00;;;;5001044;28;20673;-87
2023/08/07 00:20:01;;;;;;;1.90;0.40;;;;;14.60;96145.00;;;;5001429;28;20230;-88
2023/08/07 00:22:50;;;;;;;0.73;0.40;;;;;14.40;96149.00;;;;5008863;28;20675;-88
2023/08/07 00:25:39;;;;;;;2.63;0.40;;;;;14.60;96148.00;;;;5002963;28;20264;-89
2023/08/07 00:28:29;;;;;;;0.33;0.33;;;;;14.50;96145.00;;;;4997209;28;20229;-86
2023/08/07 00:31:18;;;;;;;0.67;0.27;;;;;14.20;96152.00;;;;4990323;28;20295;-86
2023/08/07 00:34:07;;;;;;;0.63;0.30;;;;;14.40;96158.00;;;;4994288;28;20195;-89
2023/08/07 00:36:58;;;;;;;0.73;0.30;;;;;14.60;96157.00;;;;5011419;28;20239;-87
2023/08/07 00:39:47;;;;;;;0.30;0.30;;;;;14.60;96148.00;;;;5011513;28;20230;-87
2023/08/07 00:42:36;;;;;;;0.30;0.30;;;;;14.10;96146.00;;;;5005329;28;20265;-88
2023/08/07 00:45:25;;;;;;;2.13;0.40;;;;;14.00;96148.00;;;;5010685;28;20605;-88
2023/08/07 00:48:14;;;;;;;1.60;0.53;;;;;14.50;96153.00;;;;5011391;28;20232;-89
2023/08/07 00:51:04;;;;;;;3.10;0.30;;;;;14.40;96151.00;;;;5003479;28;20205;-87
2023/08/07 00:53:54;;;;;;;2.70;0.50;;;;;14.30;96144.00;;;;5000211;28;20216;-87
2023/08/07 00:56:44;;;;;;;0.73;0.53;;;;;13.30;96130.00;;;;4997028;28;20207;-87
2023/08/07 00:59:33;;;;;;;0.30;0.30;;;;;13.10;96141.00;;;;5000800;28;20229;-87
2023/08/07 01:02:22;;;;;;;5.20;2.10;;;;;13.60;96144.00;;;;5003216;28;20226;-87
2023/08/07 01:05:11;;;;;;;0.63;0.40;;;;;13.80;96145.00;;;;4995543;28;20714;-87
2023/08/07 01:08:01;;;;;;;0.50;0.30;;;;;13.80;96147.00;;;;5003028;28;20233;-87
2023/08/07 01:11:07;;;;;;;2.00;0.40;;;;;13.90;96149.00;;;;4997897;28;20566;-88
2023/08/07 01:14:03;;;;;;;0.33;0.30;;;;;14.20;96143.00;;;;5000014;28;20202;-87
2023/08/07 01:16:56;;;;;;;0.20;0.20;;;;;14.00;96152.00;;;;5004746;28;20207;-88
2023/08/07 01:19:47;;;;;;;2.00;0.40;;;;;12.90;96135.00;;;;5005383;28;20719;-85
2023/08/07 01:22:37;;;;;;;0.30;0.30;;;;;13.60;96140.00;;;;5005376;28;20230;-87
2023/08/07 01:25:27;;;;;;;0.60;0.30;;;;;14.10;96138.00;;;;5008460;28;20198;-87
2023/08/07 01:28:22;;;;;;;1.03;0.37;;;;;13.90;96145.00;;;;5006618;28;20230;-86
2023/08/07 01:31:15;;;;;;;3.00;0.40;;;;;13.60;96138.00;;;;5008206;28;20232;-86
2023/08/07 01:34:08;;;;;;;0.77;0.40;;;;;13.60;96135.00;;;;5002626;28;20218;-86
2023/08/07 01:36:59;;;;;;;0.70;0.40;;;;;13.80;96136.00;;;;5005732;28;20241;-87
2023/08/07 01:39:50;;;;;;;0.40;0.40;;;;;13.50;96136.00;;;;5005083;28;20230;-86
2023/08/07 01:42:40;;;;;;;0.43;0.40;;;;;13.40;96134.00;;;;5003354;28;20202;-87
2023/08/07 01:45:30;;;;;;;0.30;0.30;;;;;12.90;96132.00;;;;5008628;28;20197;-86
2023/08/07 01:48:19;;;;;;;1.13;0.43;;;;;13.20;96124.00;;;;5009203;28;20256;-86
2023/08/07 01:51:08;;;;;;;2.63;0.53;;;;;13.70;96152.00;;;;5007069;28;20503;-88
2023/08/07 01:53:57;;;;;;;0.30;0.30;;;;;13.50;96128.00;;;;4994755;28;20207;-86
2023/08/07 01:56:47;;;;;;;0.40;0.40;;;;;12.20;96148.00;;;;4993081;28;20215;-86
2023/08/07 01:59:36;;;;;;;2.77;0.40;;;;;12.30;96149.00;;;;4999513;28;20234;-86
2023/08/07 02:02:25;;;;;;;2.67;0.50;;;;;13.10;96144.00;;;;5009482;28;20251;-88
2023/08/07 02:05:15;;;;;;;1.63;0.30;;;;;13.30;96142.00;;;;5009537;28;20873;-87
2023/08/07 02:08:04;;;;;;;1.50;0.40;;;;;13.20;96142.00;;;;5009755;28;20209;-87
2023/08/07 02:10:53;;;;;;;0.20;0.20;;;;;13.30;96150.00;;;;5002327;28;20210;-87
2023/08/07 02:13:44;;;;;;;0.60;0.40;;;;;13.20;96140.00;;;;5005388;28;20211;-87
2023/08/07 02:16:33;;;;;;;0.47;0.30;;;;;12.90;96132.00;;;;5001922;28;20198;-88
2023/08/07 02:19:22;;;;;;;3.20;0.30;;;;;12.70;96132.00;;;;5007684;28;20287;-85
2023/08/07 02:22:11;;;;;;;0.60;0.33;;;;;12.90;96138.00;;;;4999181;28;20581;-87
2023/08/07 02:25:00;;;;;;;0.77;0.40;;;;;13.30;96139.00;;;;5006230;28;20206;-87
2023/08/07 02:27:49;;;;;;;0.50;0.30;;;;;13.10;96129.00;;;;5004473;28;20210;-87
2023/08/07 02:30:40;;;;;;;0.77;0.47;;;;;12.80;96129.00;;;;5001370;28;20211;-87
2023/08/07 02:33:30;;;;;;;0.37;0.37;;;;;13.00;96146.00;;;;5006509;28;20222;-87
2023/08/07 02:36:19;;;;;;;0.50;0.40;;;;;12.90;96133.00;;;;5001568;28;20520;-87
2023/08/07 02:39:08;;;;;;;0.50;0.50;;;;;12.70;96141.00;;;;5001887;28;20218;-87
2023/08/07 02:41:57;;;;;;;0.30;0.30;;;;;13.20;96141.00;;;;5003871;28;20190;-87
2023/08/07 02:44:46;;;;;;;0.60;0.40;;;;;12.70;96133.00;;;;5009692;28;20210;-86
2023/08/07 02:47:37;;;;;;;1.20;0.40;;;;;12.50;96134.00;;;;5002642;28;20715;-87
2023/08/07 02:50:27;;;;;;;0.40;0.40;;;;;13.00;96136.00;;;;5008013;28;20206;-87
2023/08/07 02:53:16;;;;;;;0.40;0.30;;;;;13.00;96135.00;;;;5005225;28;20236;-87
2023/08/07 02:56:05;;;;;;;2.43;0.63;;;;;12.90;96128.00;;;;5007461;28;20202;-86
2023/08/07 02:58:57;;;;;;;1.10;0.50;;;;;12.30;96129.00;;;;4998726;28;20234;-86
2023/08/07 03:01:46;;;;;;;0.50;0.47;;;;;12.50;96122.00;;;;4991309;28;20230;-86
2023/08/07 03:04:37;;;;;;;0.43;0.43;;;;;11.90;96127.00;;;;4991297;28;20671;-87
2023/08/07 03:07:27;;;;;;;0.73;0.27;;;;;11.70;96133.00;;;;5001916;28;20205;-85
2023/08/07 03:10:16;;;;;;;0.90;0.40;;;;;11.50;96129.00;;;;5007842;28;20210;-88
2023/08/07 03:13:05;;;;;;;1.50;0.40;;;;;12.30;96139.00;;;;5007188;28;20226;-86
2023/08/07 03:16:00;;;;;;;0.40;0.40;;;;;11.80;96135.00;;;;5002663;28;20732;-87
2023/08/07 03:18:49;;;;;;;0.30;0.30;;;;;12.10;96140.00;;;;5000220;28;20688;-86
2023/08/07 03:21:40;;;;;;;0.50;0.40;;;;;12.90;96154.00;;;;5002935;28;20210;-86
2023/08/07 03:24:29;;;;;;;0.50;0.30;;;;;12.60;96153.00;;;;4995599;28;20229;-86
2023/08/07 03:27:18;;;;;;;2.00;0.50;;;;;12.50;96151.00;;;;4998385;28;20208;-86
2023/08/07 03:30:08;;;;;;;0.30;0.30;;;;;12.50;96153.00;;;;5007521;28;20276;-87
2023/08/07 03:32:57;;;;;;;1.93;0.37;;;;;12.90;96147.00;;;;4999870;28;20226;-87
2023/08/07 03:35:47;;;;;;;0.63;0.40;;;;;13.00;96151.00;;;;5005659;28;20206;-87
2023/08/07 03:38:37;;;;;;;2.50;0.50;;;;;12.70;96158.00;;;;5005019;28;20256;-88
2023/08/07 03:41:26;;;;;;;2.70;0.60;;;;;12.50;96166.00;;;;4997365;28;20225;-87
2023/08/07 03:44:15;;;;;;;1.83;0.60;;;;;12.50;96170.00;;;;5006413;28;20213;-87
2023/08/07 03:47:05;;;;;;;0.43;0.30;;;;;12.30;96176.00;;;;4993995;28;20219;-87
2023/08/07 03:49:54;;;;;;;0.53;0.50;;;;;11.90;96180.00;;;;4997659;28;20240;-87
2023/08/07 03:52:43;;;;;;;0.83;0.30;;;;;12.00;96180.00;;;;4998134;28;20599;-86
2023/08/07 03:55:33;;;;;;;0.80;0.43;;;;;12.80;96193.00;;;;5008670;28;20202;-88
2023/08/07 03:58:22;;;;;;;0.43;0.43;;;;;13.10;96195.00;;;;5006803;28;20229;-87
2023/08/07 04:01:11;;;;;;;1.43;0.40;;;;;13.30;96197.00;;;;5006360;28;20209;-87
2023/08/07 04:04:01;;;;;;;0.30;0.30;;;;;12.80;96189.00;;;;5006615;28;20528;-87
2023/08/07 04:06:50;;;;;;;1.93;0.50;;;;;12.50;96180.00;;;;4999259;28;20206;-87
2023/08/07 04:09:39;;;;;;;1.17;0.33;;;;;12.60;96197.00;;;;5005037;28;20271;-88
2023/08/07 04:12:29;;;;;;;1.50;0.40;;;;;12.60;96194.00;;;;5004932;28;20232;-88
2023/08/07 04:15:18;;;;;;;0.97;0.47;;;;;12.60;96182.00;;;;5005148;28;20214;-87
2023/08/07 04:18:07;;;;;;;0.30;0.30;;;;;12.70;96186.00;;;;5004736;28;20233;-87
2023/08/07 04:20:57;;;;;;;0.40;0.40;;;;;12.90;96191.00;;;;5001936;28;20834;-86
2023/08/07 04:23:46;;;;;;;0.27;0.23;;;;;12.10;96178.00;;;;5000722;28;20205;-86
2023/08/07 04:26:35;;;;;;;0.83;0.43;;;;;12.50;96183.00;;;;4999474;28;20194;-86
2023/08/07 04:29:26;;;;;;;0.60;0.50;;;;;12.60;96183.00;;;;5002709;28;20291;-86
2023/08/07 04:32:15;;;;;;;0.33;0.33;;;;;13.50;96199.00;;;;5008903;28;20859;-87
2023/08/07 04:35:04;;;;;;;0.30;0.30;;;;;13.30;96192.00;;;;5002096;28;20209;-87
2023/08/07 04:37:53;;;;;;;6.03;0.40;;;;;13.20;96191.00;;;;4995187;28;20217;-86
2023/08/07 04:40:46;;;;;;;1.07;0.50;;;;;13.60;96203.00;;;;4998513;28;20209;-86
2023/08/07 04:43:35;;;;;;;0.57;0.53;;;;;13.80;96202.00;;;;5005387;28;20201;-86
2023/08/07 04:46:26;;;;;;;1.13;0.40;;;;;13.80;96196.00;;;;5004065;28;20213;-87
2023/08/07 04:49:15;;;;;;;0.53;0.40;;;;;12.90;96197.00;;;;5010916;28;20244;-86
2023/08/07 04:52:04;;;;;;;0.83;0.63;;;;;13.10;96205.00;;;;5002909;28;20211;-88
2023/08/07 04:54:57;;;;;;;0.53;0.50;;;;;13.90;96211.00;;;;4993987;28;20210;-88
2023/08/07 04:57:47;;;;;;;0.97;0.40;;;;;14.20;96221.00;;;;4999045;28;20201;-88
2023/08/07 05:00:36;;;;;;;0.73;0.60;;;;;14.10;96216.00;;;;5000180;28;20206;-87
2023/08/07 05:03:27;;;;;;;1.03;0.43;;;;;13.90;96219.00;;;;5006547;28;20745;-87
2023/08/07 05:06:16;;;;;;;0.50;0.50;;;;;14.40;96208.00;;;;5009208;28;20210;-86
2023/08/07 05:09:06;;;;;;;1.40;0.43;;;;;14.40;96210.00;;;;5007961;28;20714;-87
2023/08/07 05:11:55;;;;;;;0.47;0.43;;;;;14.60;96229.00;;;;5009425;28;20209;-87
2023/08/07 05:14:45;;;;;;;0.60;0.47;;;;;14.20;96214.00;;;;5010596;28;20240;-88
2023/08/07 05:17:34;;;;;;;3.83;0.43;;;;;14.30;96234.00;;;;5010059;28;20698;-88
2023/08/07 05:20:24;;;;;;;0.73;0.43;;;;;14.00;96231.00;;;;5009289;28;20450;-88
2023/08/07 05:23:13;;;;;;;1.83;0.57;;;;;14.40;96208.00;;;;5008790;28;20218;-88
2023/08/07 05:26:03;;;;;;;2.83;0.73;;;;;14.50;96218.00;;;;5008446;28;20202;-88
2023/08/07 05:28:52;;;;;;;0.47;0.33;;;;;14.50;96232.00;;;;5006294;28;20225;-87
2023/08/07 05:31:41;;;;;;;0.40;0.40;;;;;13.90;96219.00;;;;5019382;28;20190;-88
2023/08/07 05:34:30;;;;;;;0.40;0.40;;;;;13.60;96221.00;;;;5033002;28;20206;-90
2023/08/07 05:37:20;;;;;;;0.60;0.50;;;;;14.40;96229.00;;;;5025172;28;20320;-91
2023/08/07 05:40:11;;;;;;;0.93;0.50;;;;;14.90;96231.00;;;;5032295;28;20209;-89
2023/08/07 05:43:00;;;;;;;3.87;2.53;;;;;15.00;96239.00;;;;5013191;28;20277;-88
2023/08/07 05:45:51;;;;;;;2.50;1.70;;;;;14.50;96237.00;;;;5007273;28;20198;-88
2023/08/07 05:48:40;;;;;;;1.23;0.73;;;;;14.50;96245.00;;;;5008202;28;20228;-88
2023/08/07 05:51:29;;;;;;;0.73;0.50;;;;;14.30;96236.00;;;;5005473;28;20504;-87
2023/08/07 05:54:19;;;;;;;3.30;0.50;;;;;14.80;96248.00;;;;5004344;28;20218;-88
2023/08/07 05:57:08;;;;;;;0.60;0.47;;;;;15.00;96254.00;;;;5009535;28;20671;-89
2023/08/07 05:59:57;;;;;;;3.13;0.37;;;;;14.90;96266.00;;;;5008743;28;20225;-89
2023/08/07 06:02:47;;;;;;;0.30;0.30;;;;;14.90;96265.00;;;;5009209;28;20210;-87
2023/08/07 06:05:36;;;;;;;0.43;0.40;;;;;15.20;96266.00;;;;5005357;28;20615;-89
2023/08/07 06:08:25;;;;;;;2.97;0.60;;;;;15.40;96265.00;;;;5006687;28;20605;-88
2023/08/07 06:11:15;;;;;;;0.70;0.47;;;;;15.80;96259.00;;;;5006702;28;20206;-90
2023/08/07 06:14:04;;;;;;;4.33;0.30;;;;;16.40;96276.00;;;;5008998;28;20688;-89
2023/08/07 06:16:53;;;;;;;0.37;0.37;;;;;16.20;96276.00;;;;5006319;28;20601;-88
2023/08/07 06:19:42;;;;;;;0.80;0.40;;;;;16.50;96279.00;;;;4992920;28;20234;-88
2023/08/07 06:22:32;;;;;;;0.40;0.40;;;;;17.00;96291.00;;;;5005738;28;20214;-89
2023/08/07 06:25:21;;;;;;;0.60;0.50;;;;;16.40;96290.00;;;;5008818;28;20226;-89
2023/08/07 06:28:12;;;;;;;0.60;0.50;;;;;16.20;96289.00;;;;5006343;28;20248;-88
2023/08/07 06:31:05;;;;;;;2.00;0.70;;;;;16.70;96284.00;;;;5008987;28;20367;-85
2023/08/07 06:33:54;;;;;;;0.40;0.40;;;;;16.70;96283.00;;;;5004668;28;20706;-85
2023/08/07 06:36:43;;;;;;;0.57;0.50;;;;;16.60;96286.00;;;;5004419;28;20206;-85
2023/08/07 06:39:32;;;;;;;0.80;0.33;;;;;16.80;96277.00;;;;4992505;28;20232;-85
2023/08/07 06:42:22;;;;;;;0.30;0.30;;;;;16.90;96290.00;;;;5008890;28;20291;-85
2023/08/07 06:45:12;;;;;;;2.00;0.80;;;;;17.00;96278.00;;;;5002988;28;20206;-87
2023/08/07 06:48:01;;;;;;;2.00;0.60;;;;;16.80;96288.00;;;;5003292;28;20198;-85
2023/08/07 06:50:51;;;;;;;2.80;1.00;;;;;17.40;96287.00;;;;5007360;28;20634;-85
2023/08/07 06:53:40;;;;;;;0.33;0.23;;;;;17.60;96305.00;;;;4995499;28;20220;-86
2023/08/07 06:56:29;;;;;;;0.67;0.30;;;;;17.80;96295.00;;;;5001249;28;20583;-86
2023/08/07 06:59:18;;;;;;;0.47;0.30;;;;;17.90;96294.00;;;;5007077;28;20222;-86
2023/08/07 07:02:09;;;;;;;0.30;0.30;;;;;18.10;96297.00;;;;5008184;28;20210;-86
2023/08/07 07:04:58;;;;;;;3.03;0.40;;;;;18.40;96290.00;;;;5002273;28;20198;-85
2023/08/07 07:07:47;;;;;;;0.57;0.40;;;;;18.10;96301.00;;;;5004683;28;20217;-85
2023/08/07 07:10:36;;;;;;;0.40;0.30;;;;;18.10;96299.00;;;;5005226;28;20448;-85
2023/08/07 07:13:25;;;;;;;0.37;0.23;;;;;18.60;96300.00;;;;5005558;28;20209;-86
2023/08/07 07:16:14;;;;;;;0.77;0.20;;;;;18.90;96306.00;;;;5001454;28;20300;-87
2023/08/07 07:19:06;;;;;;;0.50;0.40;;;;;18.80;96303.00;;;;5002124;28;20226;-86
2023/08/07 07:21:55;;;;;;;1.27;0.50;;;;;19.10;96307.00;;;;5005456;28;20202;-86
2023/08/07 07:24:44;;;;;;;0.30;0.20;;;;;19.00;96308.00;;;;4994787;28;20202;-86
2023/08/07 07:27:33;;;;;;;0.87;0.30;;;;;19.30;96312.00;;;;4992574;28;20206;-86
2023/08/07 07:30:22;;;;;;;0.30;0.30;;;;;19.20;96318.00;;;;5001174;28;20210;-86
2023/08/07 07:33:13;;;;;;;0.20;0.20;;;;;19.00;96306.00;;;;5001568;28;20554;-87
2023/08/07 07:36:04;;;;;;;0.30;0.20;;;;;19.30;96307.00;;;;5005287;28;20288;-84
2023/08/07 07:38:53;;;;;;;0.20;0.20;;;;;19.70;96315.00;;;;5003794;28;20221;-86
2023/08/07 07:41:42;;;;;;;0.27;0.20;;;;;19.90;96310.00;;;;4995888;28;20229;-85
2023/08/07 07:44:31;;;;;;;0.30;0.20;;;;;19.90;96315.00;;;;5001078;28;20194;-86
2023/08/07 07:47:21;;;;;;;0.20;0.20;;;;;19.90;96317.00;;;;4999364;28;20211;-87
2023/08/07 07:50:12;;;;;;;0.20;0.10;;;;;20.40;96324.00;;;;4999178;28;20754;-86
2023/08/07 07:53:03;;;;;;;0.20;0.10;;;;;20.60;96325.00;;;;5004020;28;20210;-85
2023/08/07 07:55:52;;;;;;;0.20;0.20;;;;;20.60;96338.00;;;;5002940;28;20740;-88
2023/08/07 07:58:41;;;;;;;0.20;0.20;;;;;20.10;96342.00;;;;4998688;28;20261;-87
2023/08/07 08:01:30;;;;;;;0.20;0.13;;;;;20.20;96341.00;;;;5002786;28;20208;-86
2023/08/07 08:04:20;;;;;;;0.20;0.20;;;;;20.10;96352.00;;;;5003379;28;20291;-87
2023/08/07 08:07:09;;;;;;;0.30;0.30;;;;;20.40;96340.00;;;;5004583;28;20206;-86
2023/08/07 08:10:00;;;;;;;0.30;0.10;;;;;20.20;96352.00;;;;5007185;28;20244;-87
2023/08/07 08:12:49;;;;;;;0.90;0.40;;;;;21.00;96337.00;;;;5004674;28;20702;-85
2023/08/07 08:15:38;;;;;;;0.20;0.20;;;;;21.30;96346.00;;;;5007401;28;20225;-87
2023/08/07 08:18:27;;;;;;;0.50;0.30;;;;;20.90;96352.00;;;;5007252;28;20332;-85
2023/08/07 08:21:16;;;;;;;0.30;0.10;;;;;20.40;96355.00;;;;5005683;28;20206;-86
2023/08/07 08:24:05;;;;;;;0.30;0.20;;;;;20.50;96346.00;;;;5006729;28;20698;-86
2023/08/07 08:26:56;;;;;;;0.20;0.10;;;;;21.20;96331.00;;;;5007513;28;20206;-86
2023/08/07 08:29:46;;;;;;;1.37;0.30;;;;;21.60;96352.00;;;;5006847;28;20249;-87
2023/08/07 08:32:35;;;;;;;0.20;0.10;;;;;20.90;96354.00;;;;5006915;28;20214;-86
2023/08/07 08:35:24;;;;;;;0.30;0.20;;;;;21.10;96342.00;;;;5007440;28;20731;-86
2023/08/07 08:38:13;;;;;;;0.20;0.10;;;;;20.40;96351.00;;;;5011397;28;20229;-85
2023/08/07 08:41:03;;;;;;;0.53;0.30;;;;;20.10;96341.00;;;;5027782;28;20224;-85
2023/08/07 08:43:56;;;;;;;1.90;0.30;;;;;20.50;96343.00;;;;5032616;28;20208;-86
2023/08/07 08:46:45;;;;;;;0.37;0.20;;;;;20.20;96350.00;;;;5032117;28;20190;-85
2023/08/07 08:49:38;;;;;;;0.40;0.30;;;;;20.00;96349.00;;;;5025731;28;20221;-86
2023/08/07 08:52:28;;;;;;;0.20;0.20;;;;;19.90;96344.00;;;;5005543;28;20206;-86
2023/08/07 08:55:17;;;;;;;0.30;0.10;;;;;20.10;96343.00;;;;5010759;28;20245;-86
2023/08/07 08:58:06;;;;;;;0.87;0.40;;;;;20.50;96370.00;;;;5011858;28;20221;-84
2023/08/07 09:00:57;;;;;;;0.30;0.30;;;;;21.10;96368.00;;;;5010791;28;20210;-86
2023/08/07 09:03:46;;;;;;;0.93;0.40;;;;;21.10;96357.00;;;;5010660;28;20285;-85
2023/08/07 09:06:35;;;;;;;0.20;0.10;;;;;21.70;96358.00;;;;5000536;28;20195;-86
2023/08/07 09:09:25;;;;;;;0.33;0.30;;;;;21.50;96362.00;;;;5008940;28;20227;-87
2023/08/07 09:12:20;;;;;;;0.40;0.30;;;;;21.30;96346.00;;;;5005945;28;20205;-85
2023/08/07 09:15:11;;;;;;;0.20;0.20;;;;;22.60;96348.00;;;;5009285;28;20233;-85
2023/08/07 09:18:02;;;;;;;0.40;0.13;;;;;22.60;96344.00;;;;5005345;28;20259;-85
2023/08/07 09:20:51;;;;;;;0.20;0.20;;;;;22.10;96358.00;;;;4996830;28;20575;-86
2023/08/07 09:23:40;;;;;;;0.40;0.30;;;;;21.40;96346.00;;;;5011135;28;20352;-85
2023/08/07 09:26:30;;;;;;;2.97;0.33;;;;;21.90;96340.00;;;;5009884;28;20205;-85
2023/08/07 09:29:19;;;;;;;0.20;0.20;;;;;23.40;96374.00;;;;5009340;28;20222;-84
2023/08/07 09:32:09;;;;;;;0.80;0.27;;;;;23.60;96396.00;;;;5006926;28;20687;-85
2023/08/07 09:34:59;;;;;;;0.20;0.10;;;;;23.00;96405.00;;;;5008473;28;20214;-85
2023/08/07 09:37:49;;;;;;;0.70;0.20;;;;;22.30;96402.00;;;;4997951;28;20206;-85
2023/08/07 09:40:38;;;;;;;0.40;0.30;;;;;21.60;96409.00;;;;5008431;28;20217;-87
2023/08/07 09:43:27;;;;;;;0.30;0.30;;;;;22.90;96408.00;;;;5007110;28;20828;-84
2023/08/07 09:46:16;;;;;;;0.30;0.30;;;;;23.60;96402.00;;;;5004875;28;20213;-85
2023/08/07 09:49:05;;;;;;;0.23;0.20;;;;;22.60;96394.00;;;;5007930;28;20218;-87
2023/08/07 09:51:56;;;;;;;0.30;0.30;;;;;22.40;96404.00;;;;5010232;28;20210;-88
2023/08/07 09:54:45;;;;;;;0.30;0.30;;;;;21.50;96416.00;;;;5010416;28;20583;-88
2023/08/07 09:57:34;;;;;;;0.40;0.27;;;;;22.30;96421.00;;;;5008278;28;20198;-86
2023/08/07 10:00:23;;;;;;;0.57;0.40;;;;;21.10;96425.00;;;;5002919;28;20395;-89
2023/08/07 10:03:12;;;;;;;1.27;0.30;;;;;22.50;96424.00;;;;5005837;28;20213;-84
2023/08/07 10:06:01;;;;;;;0.47;0.30;;;;;21.30;96419.00;;;;4998857;28;20348;-85
2023/08/07 10:08:52;;;;;;;0.40;0.33;;;;;21.70;96430.00;;;;5005931;28;20612;-85
2023/08/07 10:11:43;;;;;;;0.30;0.20;;;;;21.90;96448.00;;;;5010295;28;20205;-85
2023/08/07 10:14:32;;;;;;;0.60;0.20;;;;;22.10;96439.00;;;;5008250;28;20581;-86
2023/08/07 10:17:21;;;;;;;0.80;0.30;;;;;22.30;96450.00;;;;5008111;28;20229;-85
2023/08/07 10:20:12;;;;;;;0.20;0.20;;;;;23.00;96457.00;;;;5009420;28;20745;-85
2023/08/07 10:23:04;;;;;;;0.30;0.20;;;;;23.50;96464.00;;;;5006532;28;20203;-85
2023/08/07 10:25:55;;;;;;;1.83;0.20;;;;;23.40;96475.00;;;;5005390;28;20206;-85
2023/08/07 10:28:45;;;;;;;0.20;0.10;;;;;23.20;96474.00;;;;5005963;28;20222;-84
2023/08/07 10:31:35;;;;;;;0.30;0.20;;;;;23.40;96471.00;;;;5003417;28;20664;-84
2023/08/07 10:34:24;;;;;;;0.57;0.40;;;;;23.00;96480.00;;;;5005306;28;20594;-85
2023/08/07 10:37:35;;;;;;;0.50;0.37;;;;;23.60;96479.00;;;;5009325;28;20606;-85
2023/08/07 10:40:26;;;;;;;0.30;0.30;;;;;23.40;96485.00;;;;5008747;28;20664;-84
2023/08/07 10:43:19;;;;;;;1.03;0.30;;;;;23.40;96479.00;;;;5008623;28;20285;-85
2023/08/07 10:46:11;;;;;;;1.00;0.20;;;;;23.60;96486.00;;;;5001979;28;20212;-85
2023/08/07 10:49:01;;;;;;;0.83;0.50;;;;;23.40;96487.00;;;;4998728;28;20665;-84
2023/08/07 10:51:52;;;;;;;0.50;0.40;;;;;23.60;96494.00;;;;5003891;28;20584;-85
2023/08/07 10:54:43;;;;;;;0.60;0.40;;;;;23.70;96496.00;;;;5003566;28;20213;-85
2023/08/07 10:57:33;;;;;;;0.50;0.37;;;;;22.50;96494.00;;;;5001974;28;20213;-85
2023/08/07 11:00:27;;;;;;;1.43;0.30;;;;;23.10;96497.00;;;;5007963;28;20217;-85
2023/08/07 11:03:26;;;;;;;0.47;0.27;;;;;23.10;96489.00;;;;5006171;28;20202;-85
2023/08/07 11:06:16;;;;;;;0.47;0.30;;;;;23.10;96496.00;;;;5006804;28;20206;-85
2023/08/07 11:09:06;;;;;;;0.40;0.33;;;;;23.90;96499.00;;;;5008404;28;20217;-85
2023/08/07 11:11:55;;;;;;;0.30;0.30;;;;;23.90;96501.00;;;;4998721;28;20202;-86
2023/08/07 11:14:44;;;;;;;0.70;0.40;;;;;23.80;96508.00;;;;5002507;28;20202;-86
2023/08/07 11:17:35;;;;;;;1.90;0.40;;;;;23.50;96510.00;;;;5007493;28;20225;-85
2023/08/07 11:20:24;;;;;;;0.47;0.27;;;;;23.90;96510.00;;;;5001029;28;20288;-86
2023/08/07 11:23:13;;;;;;;0.40;0.27;;;;;23.40;96516.00;;;;5008304;28;20210;-85
2023/08/07 11:26:03;;;;;;;0.60;0.50;;;;;23.20;96519.00;;;;5005233;28;20204;-86
2023/08/07 11:28:52;;;;;;;3.13;0.50;;;;;23.50;96527.00;;;;5003702;28;20229;-84
2023/08/07 11:31:41;;;;;;;1.43;0.60;;;;;23.40;96524.00;;;;5008060;28;20583;-85
2023/08/07 11:34:32;;;;;;;0.93;0.47;;;;;23.00;96529.00;;;;4998858;28;20209;-86
2023/08/07 11:37:21;;;;;;;0.40;0.40;;;;;22.90;96534.00;;;;5007864;28;20226;-85
2023/08/07 11:40:12;;;;;;;0.40;0.40;;;;;23.00;96535.00;;;;5007267;28;20233;-85
2023/08/07 11:43:01;;;;;;;0.90;0.40;;;;;23.00;96542.00;;;;5007785;28;20568;-87
2023/08/07 11:45:50;;;;;;;0.50;0.37;;;;;22.40;96540.00;;;;5008422;28;20213;-86
2023/08/07 11:48:40;;;;;;;0.30;0.30;;;;;22.20;96555.00;;;;5008320;28;20335;-86
2023/08/07 11:51:31;;;;;;;0.40;0.37;;;;;22.60;96545.00;;;;5007092;28;20320;-85
2023/08/07 11:54:20;;;;;;;1.90;0.60;;;;;22.50;96554.00;;;;5007524;28;20699;-86
2023/08/07 11:57:17;;;;;;;1.03;0.63;;;;;22.70;96554.00;;;;5006157;28;20721;-86
2023/08/07 12:00:12;;;;;;;0.53;0.20;;;;;22.90;96554.00;;;;5008242;28;20268;-86
2023/08/07 12:03:02;;;;;;;0.50;0.30;;;;;22.80;96557.00;;;;5000357;28;20228;-87
2023/08/07 12:05:51;;;;;;;0.90;0.80;;;;;23.00;96561.00;;;;4993957;28;20281;-86
2023/08/07 12:08:42;;;;;;;0.50;0.30;;;;;23.00;96572.00;;;;5001803;28;20614;-87
2023/08/07 12:11:32;;;;;;;0.70;0.40;;;;;23.20;96568.00;;;;5006526;28;20209;-86
2023/08/07 12:14:21;;;;;;;0.33;0.27;;;;;22.50;96565.00;;;;5003748;28;20288;-87
2023/08/07 12:17:10;;;;;;;0.60;0.50;;;;;22.10;96566.00;;;;4995167;28;20237;-86
2023/08/07 12:20:00;;;;;;;0.83;0.60;;;;;21.90;96564.00;;;;4993013;28;20241;-86
2023/08/07 12:22:49;;;;;;;0.53;0.40;;;;;22.00;96565.00;;;;5001319;28;20562;-86
2023/08/07 12:25:40;;;;;;;0.40;0.40;;;;;22.10;96567.00;;;;5002160;28;20206;-85
2023/08/07 12:28:29;;;;;;;0.40;0.40;;;;;22.10;96570.00;;;;5008281;28;20221;-86
2023/08/07 12:31:19;;;;;;;0.63;0.37;;;;;21.90;96568.00;;;;5004972;28;20231;-85
2023/08/07 12:34:10;;;;;;;1.43;0.57;;;;;21.80;96568.00;;;;5010346;28;20205;-85
2023/08/07 12:37:02;;;;;;;0.77;0.40;;;;;22.20;96575.00;;;;5005801;28;20214;-86
2023/08/07 12:39:51;;;;;;;0.70;0.37;;;;;21.40;96566.00;;;;5001092;28;20318;-86
2023/08/07 12:42:44;;;;;;;1.67;0.60;;;;;22.00;96567.00;;;;5003423;28;20198;-86
2023/08/07 12:45:34;;;;;;;0.87;0.60;;;;;22.00;96577.00;;;;5009892;28;20909;-86
2023/08/07 12:48:27;;;;;;;2.37;0.50;;;;;21.80;96584.00;;;;5010342;28;20502;-86
2023/08/07 12:51:16;;;;;;;0.80;0.80;;;;;22.20;96578.00;;;;4998635;28;20583;-86
2023/08/07 12:54:05;;;;;;;1.37;0.97;;;;;22.50;96572.00;;;;5001935;28;20205;-86
2023/08/07 12:56:55;;;;;;;0.80;0.60;;;;;22.50;96563.00;;;;5011878;28;20241;-86
2023/08/07 12:59:45;;;;;;;0.60;0.50;;;;;22.30;96574.00;;;;5005059;28;20578;-86
2023/08/07 13:02:34;;;;;;;0.40;0.40;;;;;22.10;96569.00;;;;5005057;28;20601;-86
2023/08/07 13:05:24;;;;;;;0.60;0.60;;;;;21.20;96573.00;;;;5004413;28;20672;-85
2023/08/07 13:08:13;;;;;;;0.60;0.40;;;;;21.00;96575.00;;;;5011202;28;20213;-87
2023/08/07 13:11:02;;;;;;;2.10;0.57;;;;;21.50;96577.00;;;;4998125;28;20680;-86
2023/08/07 13:13:51;;;;;;;0.50;0.50;;;;;21.60;96580.00;;;;5001519;28;20656;-86
2023/08/07 13:16:41;;;;;;;1.30;0.73;;;;;22.00;96570.00;;;;4994067;28;20206;-86
2023/08/07 13:19:30;;;;;;;0.83;0.70;;;;;21.70;96575.00;;;;5007874;28;20300;-86
2023/08/07 13:22:20;;;;;;;0.63;0.40;;;;;21.70;96577.00;;;;5009584;28;20206;-85
2023/08/07 13:25:09;;;;;;;0.60;0.50;;;;;22.20;96583.00;;;;5002080;28;20214;-85
2023/08/07 13:27:59;;;;;;;2.10;0.80;;;;;22.20;96578.00;;;;4998792;28;20202;-85
2023/08/07 13:30:48;;;;;;;2.47;0.63;;;;;22.50;96577.00;;;;5001641;28;20581;-86
2023/08/07 13:33:39;;;;;;;3.27;0.60;;;;;22.50;96581.00;;;;5007765;28;20714;-86
2023/08/07 13:36:28;;;;;;;0.70;0.43;;;;;22.30;96574.00;;;;5010477;28;20668;-86
2023/08/07 13:39:17;;;;;;;0.80;0.70;;;;;22.00;96580.00;;;;5008683;28;20594;-85
2023/08/07 13:42:07;;;;;;;2.47;0.53;;;;;21.50;96582.00;;;;5007655;28;20202;-85
2023/08/07 13:44:56;;;;;;;1.90;0.40;;;;;22.00;96577.00;;;;5010427;28;20206;-86
2023/08/07 13:47:46;;;;;;;2.10;0.70;;;;;22.30;96576.00;;;;4997171;28;20209;-86
2023/08/07 13:50:38;;;;;;;0.83;0.43;;;;;22.10;96577.00;;;;5007023;28;20563;-87
2023/08/07 13:53:29;;;;;;;0.50;0.40;;;;;22.60;96577.00;;;;5004138;28;20614;-87
2023/08/07 13:56:18;;;;;;;0.80;0.53;;;;;22.80;96578.00;;;;5003482;28;20660;-86
2023/08/07 13:59:07;;;;;;;0.50;0.40;;;;;22.80;96581.00;;;;5010667;28;20232;-86
2023/08/07 14:01:57;;;;;;;0.40;0.40;;;;;23.20;96582.00;;;;4998773;28;20238;-87
2023/08/07 14:04:46;;;;;;;0.70;0.70;;;;;23.50;96594.00;;;;5004590;28;20582;-87
2023/08/07 14:07:36;;;;;;;0.30;0.30;;;;;23.40;96573.00;;;;5010370;28;20213;-86
2023/08/07 14:10:25;;;;;;;2.20;1.07;;;;;23.90;96581.00;;;;5009376;28;20221;-86